createdAt,value
2018-08-30T17:50:10.132Z,26.41
2018-08-30T17:54:53.602Z,26.37
2018-08-30T17:59:40.574Z,26.07
2018-08-30T18:04:24.099Z,26.25
2018-08-30T18:09:10.406Z,25.76
2018-08-30T18:13:54.775Z,25.84
2018-08-30T18:18:41.743Z,25.15
2018-08-30T18:23:25.301Z,24.91
2018-08-30T18:28:09.877Z,24.52
2018-08-30T18:32:53.274Z,24.47
2018-08-30T18:37:36.960Z,24.87
2018-08-30T18:42:20.525Z,24.44
2018-08-30T18:47:04.812Z,24.22
2018-08-30T18:51:49.020Z,24.13
2018-08-30T18:56:32.787Z,24.00
2018-08-30T19:01:16.463Z,24.27
2018-08-30T19:06:03.953Z,24.50
2018-08-30T19:10:47.327Z,24.56
2018-08-30T19:15:35.986Z,24.63
2018-08-30T19:20:20.513Z,24.84
2018-08-30T19:25:09.126Z,24.70
2018-08-30T19:30:04.378Z,24.64
2018-08-30T19:34:48.652Z,24.61
2018-08-30T19:39:35.218Z,24.63
2018-08-30T19:44:18.625Z,24.50
2018-08-30T19:49:02.160Z,24.28
2018-08-30T19:53:45.791Z,24.10
2018-08-30T19:58:30.444Z,24.06
2018-08-30T20:03:13.717Z,24.13
2018-08-30T20:07:58.215Z,24.06
2018-08-30T20:12:41.410Z,24.07
2018-08-30T20:17:25.029Z,24.02
2018-08-30T20:22:10.975Z,23.89
2018-08-30T20:26:54.449Z,23.94
2018-08-30T20:31:37.908Z,24.23
2018-08-30T20:36:21.330Z,24.51
2018-08-30T20:41:05.236Z,24.70
2018-08-30T20:45:48.696Z,24.70
2018-08-30T20:50:32.173Z,24.46
2018-08-30T20:55:15.655Z,24.13
2018-08-30T20:59:59.264Z,23.83
2018-08-30T21:04:50.190Z,23.84
2018-08-30T21:09:38.437Z,23.98
2018-08-30T21:14:22.146Z,23.92
2018-08-30T21:19:08.724Z,23.86
2018-08-30T21:23:52.248Z,23.65
2018-08-30T21:28:35.763Z,23.76
2018-08-30T21:33:21.434Z,23.62
2018-08-30T21:38:06.083Z,23.73
2018-08-30T21:42:49.439Z,23.74
2018-08-30T21:47:33.077Z,23.76
2018-08-30T21:52:16.461Z,23.57
2018-08-30T21:57:01.134Z,23.80
2018-08-30T22:01:44.532Z,23.89
2018-08-30T22:06:28.085Z,24.03
2018-08-30T22:11:11.476Z,24.06
2018-08-30T22:15:55.819Z,23.96
2018-08-30T22:20:39.250Z,24.01
2018-08-30T22:25:26.127Z,24.12
2018-08-30T22:30:10.956Z,23.96
2018-08-30T22:34:54.341Z,24.09
2018-08-30T22:39:37.812Z,24.10
2018-08-30T22:44:21.050Z,24.09
2018-08-30T22:49:04.743Z,24.15
2018-08-30T22:53:47.979Z,23.85
2018-08-30T22:58:32.425Z,23.63
2018-08-30T23:03:15.819Z,23.62
2018-08-30T23:08:00.534Z,23.56
2018-08-30T23:12:43.914Z,23.43
2018-08-30T23:17:30.858Z,23.46
2018-08-30T23:22:14.192Z,23.34
2018-08-30T23:26:58.701Z,23.37
2018-08-30T23:31:42.067Z,23.35
2018-08-30T23:36:26.459Z,23.36
2018-08-30T23:41:09.974Z,23.35
2018-08-30T23:45:54.285Z,23.28
2018-08-30T23:50:37.593Z,23.24
2018-08-30T23:55:24.396Z,23.23
